sensor_id;sensor_type;location;lat;lon;timestamp;temperature;humidity
21216;DHT22;10765;50.954;5.322;2023-03-14T00:01:19;9.80;1.00
21216;DHT22;10765;50.954;5.322;2023-03-14T00:03:47;9.80;1.00
21216;DHT22;10765;50.954;5.322;2023-03-14T00:06:14;9.90;1.00
21216;DHT22;10765;50.954;5.322;2023-03-14T00:08:42;9.90;99.90
21216;DHT22;10765;50.954;5.322;2023-03-14T00:11:11;9.90;1.00
21216;DHT22;10765;50.954;5.322;2023-03-14T00:13:40;9.90;1.00
21216;DHT22;10765;50.954;5.322;2023-03-14T00:16:09;9.90;99.90
21216;DHT22;10765;50.954;5.322;2023-03-14T00:18:37;10.00;99.90
21216;DHT22;10765;50.954;5.322;2023-03-14T00:21:06;10.10;1.00
21216;DHT22;10765;50.954;5.322;2023-03-14T00:23:34;10.10;1.00
21216;DHT22;10765;50.954;5.322;2023-03-14T00:26:03;10.20;1.00
21216;DHT22;10765;50.954;5.322;2023-03-14T00:28:31;10.20;1.00
21216;DHT22;10765;50.954;5.322;2023-03-14T00:31:01;10.30;1.00
21216;DHT22;10765;50.954;5.322;2023-03-14T00:33:28;10.10;1.00
21216;DHT22;10765;50.954;5.322;2023-03-14T00:35:56;10.00;99.90
21216;DHT22;10765;50.954;5.322;2023-03-14T00:38:23;9.90;1.00
21216;DHT22;10765;50.954;5.322;2023-03-14T00:40:51;9.80;1.00
21216;DHT22;10765;50.954;5.322;2023-03-14T00:43:18;9.70;99.90
21216;DHT22;10765;50.954;5.322;2023-03-14T00:45:47;9.80;1.00
21216;DHT22;10765;50.954;5.322;2023-03-14T00:48:15;9.80;1.00
21216;DHT22;10765;50.954;5.322;2023-03-14T00:50:42;9.80;99.90
21216;DHT22;10765;50.954;5.322;2023-03-14T00:53:09;9.90;99.90
21216;DHT22;10765;50.954;5.322;2023-03-14T00:55:37;10.00;34.50
21216;DHT22;10765;50.954;5.322;2023-03-14T00:58:04;10.00;1.00
21216;DHT22;10765;50.954;5.322;2023-03-14T01:00:31;9.90;99.90
21216;DHT22;10765;50.954;5.322;2023-03-14T01:02:58;9.90;1.00
21216;DHT22;10765;50.954;5.322;2023-03-14T01:05:27;9.90;1.00
21216;DHT22;10765;50.954;5.322;2023-03-14T01:07:54;10.00;1.00
21216;DHT22;10765;50.954;5.322;2023-03-14T01:10:24;10.00;99.90
21216;DHT22;10765;50.954;5.322;2023-03-14T01:12:51;10.10;99.90
21216;DHT22;10765;50.954;5.322;2023-03-14T01:15:18;10.20;1.00
21216;DHT22;10765;50.954;5.322;2023-03-14T01:17:45;10.30;1.00
21216;DHT22;10765;50.954;5.322;2023-03-14T01:20:14;10.30;1.00
21216;DHT22;10765;50.954;5.322;2023-03-14T01:22:43;10.40;99.90
21216;DHT22;10765;50.954;5.322;2023-03-14T01:25:12;10.50;1.00
21216;DHT22;10765;50.954;5.322;2023-03-14T01:27:39;10.50;1.00
21216;DHT22;10765;50.954;5.322;2023-03-14T01:30:07;10.40;99.90
21216;DHT22;10765;50.954;5.322;2023-03-14T01:32:35;10.40;99.90
21216;DHT22;10765;50.954;5.322;2023-03-14T01:35:02;10.40;99.90
21216;DHT22;10765;50.954;5.322;2023-03-14T01:37:29;10.50;99.90
21216;DHT22;10765;50.954;5.322;2023-03-14T01:39:57;10.50;1.00
21216;DHT22;10765;50.954;5.322;2023-03-14T01:42:26;10.50;1.00
21216;DHT22;10765;50.954;5.322;2023-03-14T01:44:54;10.50;1.00
21216;DHT22;10765;50.954;5.322;2023-03-14T01:47:22;10.50;1.00
21216;DHT22;10765;50.954;5.322;2023-03-14T01:49:51;10.50;99.90
21216;DHT22;10765;50.954;5.322;2023-03-14T01:52:22;10.60;99.90
21216;DHT22;10765;50.954;5.322;2023-03-14T01:54:53;10.60;1.00
21216;DHT22;10765;50.954;5.322;2023-03-14T01:57:25;10.60;99.90
21216;DHT22;10765;50.954;5.322;2023-03-14T01:59:58;10.60;99.90
21216;DHT22;10765;50.954;5.322;2023-03-14T02:02:26;10.50;99.90
21216;DHT22;10765;50.954;5.322;2023-03-14T02:04:54;10.50;1.00
21216;DHT22;10765;50.954;5.322;2023-03-14T02:07:24;10.40;1.00
21216;DHT22;10765;50.954;5.322;2023-03-14T02:09:54;10.40;1.00
21216;DHT22;10765;50.954;5.322;2023-03-14T02:12:24;10.40;99.90
21216;DHT22;10765;50.954;5.322;2023-03-14T02:14:53;10.50;99.90
21216;DHT22;10765;50.954;5.322;2023-03-14T02:17:22;10.50;1.00
21216;DHT22;10765;50.954;5.322;2023-03-14T02:20:13;10.60;1.00
21216;DHT22;10765;50.954;5.322;2023-03-14T02:22:44;10.60;1.00
21216;DHT22;10765;50.954;5.322;2023-03-14T02:25:15;10.60;1.00
21216;DHT22;10765;50.954;5.322;2023-03-14T02:27:46;10.50;70.70
21216;DHT22;10765;50.954;5.322;2023-03-14T02:30:15;10.20;1.00
21216;DHT22;10765;50.954;5.322;2023-03-14T02:32:46;9.90;99.90
21216;DHT22;10765;50.954;5.322;2023-03-14T02:35:18;9.70;99.90
21216;DHT22;10765;50.954;5.322;2023-03-14T02:37:48;9.60;1.00
21216;DHT22;10765;50.954;5.322;2023-03-14T02:40:17;9.50;1.00
21216;DHT22;10765;50.954;5.322;2023-03-14T02:42:45;9.50;99.90
21216;DHT22;10765;50.954;5.322;2023-03-14T02:45:39;9.40;99.90
21216;DHT22;10765;50.954;5.322;2023-03-14T02:48:09;9.40;1.00
21216;DHT22;10765;50.954;5.322;2023-03-14T02:50:37;9.30;99.90
21216;DHT22;10765;50.954;5.322;2023-03-14T02:53:05;9.20;99.90
21216;DHT22;10765;50.954;5.322;2023-03-14T02:55:32;9.20;99.90
21216;DHT22;10765;50.954;5.322;2023-03-14T02:58:00;9.20;99.90
21216;DHT22;10765;50.954;5.322;2023-03-14T03:00:27;9.20;99.90
21216;DHT22;10765;50.954;5.322;2023-03-14T03:02:56;9.20;99.90
21216;DHT22;10765;50.954;5.322;2023-03-14T03:05:24;9.10;99.90
21216;DHT22;10765;50.954;5.322;2023-03-14T03:07:51;9.10;99.90
21216;DHT22;10765;50.954;5.322;2023-03-14T03:10:18;9.00;99.90
21216;DHT22;10765;50.954;5.322;2023-03-14T03:12:45;9.00;99.90
21216;DHT22;10765;50.954;5.322;2023-03-14T03:15:13;8.90;99.90
21216;DHT22;10765;50.954;5.322;2023-03-14T03:17:40;8.90;99.90
21216;DHT22;10765;50.954;5.322;2023-03-14T03:20:09;8.90;99.90
21216;DHT22;10765;50.954;5.322;2023-03-14T03:22:36;9.00;99.90
21216;DHT22;10765;50.954;5.322;2023-03-14T03:25:04;9.00;99.90
21216;DHT22;10765;50.954;5.322;2023-03-14T03:27:32;9.00;99.90
21216;DHT22;10765;50.954;5.322;2023-03-14T03:29:59;8.90;99.90
21216;DHT22;10765;50.954;5.322;2023-03-14T03:32:27;9.00;99.90
21216;DHT22;10765;50.954;5.322;2023-03-14T03:34:54;9.00;99.90
21216;DHT22;10765;50.954;5.322;2023-03-14T03:37:21;9.00;99.90
21216;DHT22;10765;50.954;5.322;2023-03-14T03:39:50;9.00;99.90
21216;DHT22;10765;50.954;5.322;2023-03-14T03:42:17;9.00;99.90
21216;DHT22;10765;50.954;5.322;2023-03-14T03:44:44;9.10;99.90
21216;DHT22;10765;50.954;5.322;2023-03-14T03:47:11;9.10;99.90
21216;DHT22;10765;50.954;5.322;2023-03-14T03:49:39;9.10;99.90
21216;DHT22;10765;50.954;5.322;2023-03-14T03:52:06;9.10;99.90
21216;DHT22;10765;50.954;5.322;2023-03-14T03:54:33;9.20;99.90
21216;DHT22;10765;50.954;5.322;2023-03-14T03:57:00;9.20;99.90
21216;DHT22;10765;50.954;5.322;2023-03-14T03:59:29;9.20;99.90
21216;DHT22;10765;50.954;5.322;2023-03-14T04:01:56;9.20;99.90
21216;DHT22;10765;50.954;5.322;2023-03-14T04:04:23;9.20;99.90
21216;DHT22;10765;50.954;5.322;2023-03-14T04:06:51;9.30;99.90
21216;DHT22;10765;50.954;5.322;2023-03-14T04:09:18;9.30;99.90
21216;DHT22;10765;50.954;5.322;2023-03-14T04:11:45;9.30;99.90
21216;DHT22;10765;50.954;5.322;2023-03-14T04:14:12;9.30;99.90
21216;DHT22;10765;50.954;5.322;2023-03-14T04:16:39;9.30;99.90
21216;DHT22;10765;50.954;5.322;2023-03-14T04:19:06;9.30;99.90
21216;DHT22;10765;50.954;5.322;2023-03-14T04:21:32;9.30;99.90
21216;DHT22;10765;50.954;5.322;2023-03-14T04:24:01;9.40;99.90
21216;DHT22;10765;50.954;5.322;2023-03-14T04:26:28;9.30;99.90
21216;DHT22;10765;50.954;5.322;2023-03-14T04:28:54;9.30;99.90
21216;DHT22;10765;50.954;5.322;2023-03-14T04:31:22;9.30;99.90
21216;DHT22;10765;50.954;5.322;2023-03-14T04:33:48;9.40;99.90
21216;DHT22;10765;50.954;5.322;2023-03-14T04:36:15;9.30;99.90
21216;DHT22;10765;50.954;5.322;2023-03-14T04:38:42;9.30;99.90
21216;DHT22;10765;50.954;5.322;2023-03-14T04:41:11;9.30;99.90
21216;DHT22;10765;50.954;5.322;2023-03-14T04:43:38;9.20;99.90
21216;DHT22;10765;50.954;5.322;2023-03-14T04:46:05;9.30;99.90
21216;DHT22;10765;50.954;5.322;2023-03-14T04:48:32;9.40;99.90
21216;DHT22;10765;50.954;5.322;2023-03-14T04:50:59;9.30;99.90
21216;DHT22;10765;50.954;5.322;2023-03-14T04:53:26;9.40;99.90
21216;DHT22;10765;50.954;5.322;2023-03-14T04:55:54;9.40;99.90
21216;DHT22;10765;50.954;5.322;2023-03-14T04:58:23;9.30;99.90
21216;DHT22;10765;50.954;5.322;2023-03-14T05:00:51;9.40;99.90
21216;DHT22;10765;50.954;5.322;2023-03-14T05:03:18;9.30;99.90
21216;DHT22;10765;50.954;5.322;2023-03-14T05:05:48;9.30;99.90
21216;DHT22;10765;50.954;5.322;2023-03-14T05:08:15;9.30;99.90
21216;DHT22;10765;50.954;5.322;2023-03-14T05:10:42;9.30;99.90
21216;DHT22;10765;50.954;5.322;2023-03-14T05:13:09;9.30;99.90
21216;DHT22;10765;50.954;5.322;2023-03-14T05:15:37;9.30;99.90
21216;DHT22;10765;50.954;5.322;2023-03-14T05:18:04;9.40;99.90
21216;DHT22;10765;50.954;5.322;2023-03-14T05:20:31;9.40;99.90
21216;DHT22;10765;50.954;5.322;2023-03-14T05:22:58;9.40;99.90
21216;DHT22;10765;50.954;5.322;2023-03-14T05:25:25;9.40;99.90
21216;DHT22;10765;50.954;5.322;2023-03-14T05:27:53;9.50;99.90
21216;DHT22;10765;50.954;5.322;2023-03-14T05:30:21;9.40;99.90
21216;DHT22;10765;50.954;5.322;2023-03-14T05:32:50;9.40;99.90
21216;DHT22;10765;50.954;5.322;2023-03-14T05:35:17;9.40;99.90
21216;DHT22;10765;50.954;5.322;2023-03-14T05:37:44;9.40;99.90
21216;DHT22;10765;50.954;5.322;2023-03-14T05:40:14;9.40;99.90
21216;DHT22;10765;50.954;5.322;2023-03-14T05:42:41;9.40;99.90
21216;DHT22;10765;50.954;5.322;2023-03-14T05:45:08;9.40;99.90
21216;DHT22;10765;50.954;5.322;2023-03-14T05:47:35;9.40;99.90
21216;DHT22;10765;50.954;5.322;2023-03-14T05:50:04;9.40;99.90
21216;DHT22;10765;50.954;5.322;2023-03-14T05:52:31;9.40;99.90
21216;DHT22;10765;50.954;5.322;2023-03-14T05:54:58;9.40;99.90
21216;DHT22;10765;50.954;5.322;2023-03-14T05:57:25;9.40;99.90
21216;DHT22;10765;50.954;5.322;2023-03-14T05:59:52;9.40;99.90
21216;DHT22;10765;50.954;5.322;2023-03-14T06:02:19;9.50;99.90
21216;DHT22;10765;50.954;5.322;2023-03-14T06:04:46;9.40;99.90
21216;DHT22;10765;50.954;5.322;2023-03-14T06:07:14;9.40;99.90
21216;DHT22;10765;50.954;5.322;2023-03-14T06:09:41;9.40;99.90
21216;DHT22;10765;50.954;5.322;2023-03-14T06:12:08;9.40;99.90
21216;DHT22;10765;50.954;5.322;2023-03-14T06:14:35;9.50;99.90
21216;DHT22;10765;50.954;5.322;2023-03-14T06:17:02;9.50;99.90
21216;DHT22;10765;50.954;5.322;2023-03-14T06:19:29;9.50;99.90
21216;DHT22;10765;50.954;5.322;2023-03-14T06:21:56;9.50;99.90
21216;DHT22;10765;50.954;5.322;2023-03-14T06:24:24;9.50;99.90
21216;DHT22;10765;50.954;5.322;2023-03-14T06:26:51;9.50;99.90
21216;DHT22;10765;50.954;5.322;2023-03-14T06:29:18;9.50;99.90
21216;DHT22;10765;50.954;5.322;2023-03-14T06:31:45;9.50;99.90
21216;DHT22;10765;50.954;5.322;2023-03-14T06:34:11;9.50;99.90
21216;DHT22;10765;50.954;5.322;2023-03-14T06:36:39;9.50;99.90
21216;DHT22;10765;50.954;5.322;2023-03-14T06:39:06;9.70;99.90
21216;DHT22;10765;50.954;5.322;2023-03-14T06:41:34;9.70;99.90
21216;DHT22;10765;50.954;5.322;2023-03-14T06:44:01;9.70;99.90
21216;DHT22;10765;50.954;5.322;2023-03-14T06:46:28;9.80;99.90
21216;DHT22;10765;50.954;5.322;2023-03-14T06:48:55;9.90;99.90
21216;DHT22;10765;50.954;5.322;2023-03-14T06:51:22;9.90;99.90
21216;DHT22;10765;50.954;5.322;2023-03-14T06:53:49;9.90;99.90
21216;DHT22;10765;50.954;5.322;2023-03-14T06:56:16;9.80;99.90
21216;DHT22;10765;50.954;5.322;2023-03-14T06:58:44;10.00;99.90
21216;DHT22;10765;50.954;5.322;2023-03-14T07:01:20;10.10;99.90
21216;DHT22;10765;50.954;5.322;2023-03-14T07:03:47;10.10;99.90
21216;DHT22;10765;50.954;5.322;2023-03-14T07:06:14;10.30;99.90
21216;DHT22;10765;50.954;5.322;2023-03-14T07:08:42;10.30;99.90
21216;DHT22;10765;50.954;5.322;2023-03-14T07:11:09;10.40;99.90
21216;DHT22;10765;50.954;5.322;2023-03-14T07:13:36;10.30;99.90
21216;DHT22;10765;50.954;5.322;2023-03-14T07:16:06;10.30;99.90
21216;DHT22;10765;50.954;5.322;2023-03-14T07:18:33;10.30;99.90
21216;DHT22;10765;50.954;5.322;2023-03-14T07:21:00;10.30;99.90
21216;DHT22;10765;50.954;5.322;2023-03-14T07:23:27;10.30;99.90
21216;DHT22;10765;50.954;5.322;2023-03-14T07:25:55;10.10;99.90
21216;DHT22;10765;50.954;5.322;2023-03-14T07:28:22;10.00;99.90
21216;DHT22;10765;50.954;5.322;2023-03-14T07:30:49;9.90;99.90
21216;DHT22;10765;50.954;5.322;2023-03-14T07:33:17;9.90;99.90
21216;DHT22;10765;50.954;5.322;2023-03-14T07:35:46;9.90;99.90
21216;DHT22;10765;50.954;5.322;2023-03-14T07:38:13;9.90;99.90
21216;DHT22;10765;50.954;5.322;2023-03-14T07:40:40;9.90;99.90
21216;DHT22;10765;50.954;5.322;2023-03-14T07:43:07;9.90;99.90
21216;DHT22;10765;50.954;5.322;2023-03-14T07:45:34;9.90;99.90
21216;DHT22;10765;50.954;5.322;2023-03-14T07:48:01;9.90;99.90
21216;DHT22;10765;50.954;5.322;2023-03-14T07:50:30;9.90;99.90
21216;DHT22;10765;50.954;5.322;2023-03-14T07:52:56;9.90;99.90
21216;DHT22;10765;50.954;5.322;2023-03-14T07:55:23;9.80;99.90
21216;DHT22;10765;50.954;5.322;2023-03-14T07:57:50;9.00;99.90
21216;DHT22;10765;50.954;5.322;2023-03-14T08:00:18;8.50;99.90
21216;DHT22;10765;50.954;5.322;2023-03-14T08:02:45;8.30;99.90
21216;DHT22;10765;50.954;5.322;2023-03-14T08:05:12;8.10;99.90
21216;DHT22;10765;50.954;5.322;2023-03-14T08:07:40;8.00;99.90
21216;DHT22;10765;50.954;5.322;2023-03-14T08:10:08;8.00;99.90
21216;DHT22;10765;50.954;5.322;2023-03-14T08:12:35;8.10;99.90
21216;DHT22;10765;50.954;5.322;2023-03-14T08:15:03;8.10;99.90
21216;DHT22;10765;50.954;5.322;2023-03-14T08:17:30;8.00;99.90
21216;DHT22;10765;50.954;5.322;2023-03-14T08:19:57;7.90;99.90
21216;DHT22;10765;50.954;5.322;2023-03-14T08:22:23;7.80;99.90
21216;DHT22;10765;50.954;5.322;2023-03-14T08:24:52;7.80;99.90
21216;DHT22;10765;50.954;5.322;2023-03-14T08:27:18;7.80;99.90
21216;DHT22;10765;50.954;5.322;2023-03-14T08:29:45;7.70;99.90
21216;DHT22;10765;50.954;5.322;2023-03-14T08:32:12;7.60;99.90
21216;DHT22;10765;50.954;5.322;2023-03-14T08:34:39;7.60;99.90
21216;DHT22;10765;50.954;5.322;2023-03-14T08:37:06;7.50;99.90
21216;DHT22;10765;50.954;5.322;2023-03-14T08:39:33;7.50;99.90
21216;DHT22;10765;50.954;5.322;2023-03-14T08:42:01;7.50;99.90
21216;DHT22;10765;50.954;5.322;2023-03-14T08:44:29;7.50;99.90
21216;DHT22;10765;50.954;5.322;2023-03-14T08:46:56;7.40;99.90
21216;DHT22;10765;50.954;5.322;2023-03-14T08:49:22;7.40;99.90
21216;DHT22;10765;50.954;5.322;2023-03-14T08:51:49;7.80;99.90
21216;DHT22;10765;50.954;5.322;2023-03-14T08:54:16;7.80;99.90
21216;DHT22;10765;50.954;5.322;2023-03-14T08:56:44;7.80;99.90
21216;DHT22;10765;50.954;5.322;2023-03-14T08:59:12;7.60;99.90
21216;DHT22;10765;50.954;5.322;2023-03-14T09:01:39;7.50;99.90
21216;DHT22;10765;50.954;5.322;2023-03-14T09:04:06;7.60;99.90
21216;DHT22;10765;50.954;5.322;2023-03-14T09:06:33;7.70;99.90
21216;DHT22;10765;50.954;5.322;2023-03-14T09:09:00;7.90;99.90
21216;DHT22;10765;50.954;5.322;2023-03-14T09:11:27;7.90;99.90
21216;DHT22;10765;50.954;5.322;2023-03-14T09:13:54;7.90;99.90
21216;DHT22;10765;50.954;5.322;2023-03-14T09:16:22;8.00;99.90
21216;DHT22;10765;50.954;5.322;2023-03-14T09:18:49;8.10;99.90
21216;DHT22;10765;50.954;5.322;2023-03-14T09:21:18;8.00;99.90
21216;DHT22;10765;50.954;5.322;2023-03-14T09:23:45;7.90;99.90
21216;DHT22;10765;50.954;5.322;2023-03-14T09:26:14;7.90;99.90
21216;DHT22;10765;50.954;5.322;2023-03-14T09:28:43;8.20;99.90
21216;DHT22;10765;50.954;5.322;2023-03-14T09:31:15;8.10;99.90
21216;DHT22;10765;50.954;5.322;2023-03-14T09:33:43;8.00;99.90
21216;DHT22;10765;50.954;5.322;2023-03-14T09:36:11;8.10;99.90
21216;DHT22;10765;50.954;5.322;2023-03-14T09:38:38;8.20;99.90
21216;DHT22;10765;50.954;5.322;2023-03-14T09:41:13;8.30;99.90
21216;DHT22;10765;50.954;5.322;2023-03-14T09:43:42;8.30;99.90
21216;DHT22;10765;50.954;5.322;2023-03-14T09:46:10;8.30;99.90
21216;DHT22;10765;50.954;5.322;2023-03-14T09:48:38;8.20;99.90
21216;DHT22;10765;50.954;5.322;2023-03-14T09:51:13;8.10;99.90
21216;DHT22;10765;50.954;5.322;2023-03-14T09:53:41;7.80;99.90
21216;DHT22;10765;50.954;5.322;2023-03-14T09:56:13;7.80;99.90
21216;DHT22;10765;50.954;5.322;2023-03-14T09:58:41;7.60;99.90
21216;DHT22;10765;50.954;5.322;2023-03-14T10:01:12;7.60;99.90
21216;DHT22;10765;50.954;5.322;2023-03-14T10:03:41;7.50;99.90
21216;DHT22;10765;50.954;5.322;2023-03-14T10:06:13;7.60;99.90
21216;DHT22;10765;50.954;5.322;2023-03-14T10:08:41;7.70;99.90
21216;DHT22;10765;50.954;5.322;2023-03-14T10:11:14;7.70;99.90
21216;DHT22;10765;50.954;5.322;2023-03-14T10:13:50;7.60;99.90
21216;DHT22;10765;50.954;5.322;2023-03-14T10:16:17;7.70;99.90
21216;DHT22;10765;50.954;5.322;2023-03-14T10:19:01;7.90;99.90
21216;DHT22;10765;50.954;5.322;2023-03-14T10:21:32;7.90;99.90
21216;DHT22;10765;50.954;5.322;2023-03-14T10:24:19;8.20;99.90
21216;DHT22;10765;50.954;5.322;2023-03-14T10:26:48;8.30;99.90
21216;DHT22;10765;50.954;5.322;2023-03-14T10:29:16;8.30;99.90
21216;DHT22;10765;50.954;5.322;2023-03-14T10:31:49;8.30;99.90
21216;DHT22;10765;50.954;5.322;2023-03-14T10:34:21;8.30;99.90
21216;DHT22;10765;50.954;5.322;2023-03-14T10:36:54;8.20;99.90
21216;DHT22;10765;50.954;5.322;2023-03-14T10:39:27;7.90;99.90
21216;DHT22;10765;50.954;5.322;2023-03-14T10:42:03;7.80;99.90
21216;DHT22;10765;50.954;5.322;2023-03-14T10:44:31;7.80;99.90
21216;DHT22;10765;50.954;5.322;2023-03-14T10:47:00;7.80;99.90
21216;DHT22;10765;50.954;5.322;2023-03-14T10:49:30;7.70;99.90
21216;DHT22;10765;50.954;5.322;2023-03-14T10:52:14;7.80;99.90
21216;DHT22;10765;50.954;5.322;2023-03-14T10:54:45;7.60;99.90
21216;DHT22;10765;50.954;5.322;2023-03-14T10:57:12;7.50;99.90
21216;DHT22;10765;50.954;5.322;2023-03-14T10:59:41;7.50;99.90
21216;DHT22;10765;50.954;5.322;2023-03-14T11:02:26;7.50;99.90
21216;DHT22;10765;50.954;5.322;2023-03-14T11:05:03;7.40;99.90
21216;DHT22;10765;50.954;5.322;2023-03-14T11:07:39;7.40;99.90
21216;DHT22;10765;50.954;5.322;2023-03-14T11:10:13;7.50;99.90
21216;DHT22;10765;50.954;5.322;2023-03-14T11:12:49;7.70;99.90
21216;DHT22;10765;50.954;5.322;2023-03-14T11:15:25;7.80;99.90
21216;DHT22;10765;50.954;5.322;2023-03-14T11:18:12;8.00;99.90
21216;DHT22;10765;50.954;5.322;2023-03-14T11:20:45;8.00;99.90
21216;DHT22;10765;50.954;5.322;2023-03-14T11:23:21;8.70;99.90
21216;DHT22;10765;50.954;5.322;2023-03-14T11:25:56;9.20;99.90
21216;DHT22;10765;50.954;5.322;2023-03-14T11:28:29;9.20;99.90
21216;DHT22;10765;50.954;5.322;2023-03-14T11:31:06;9.40;99.90
21216;DHT22;10765;50.954;5.322;2023-03-14T11:33:38;8.90;1.00
21216;DHT22;10765;50.954;5.322;2023-03-14T11:36:07;8.70;1.00
21216;DHT22;10765;50.954;5.322;2023-03-14T11:38:39;8.10;1.00
21216;DHT22;10765;50.954;5.322;2023-03-14T11:41:12;7.70;1.00
21216;DHT22;10765;50.954;5.322;2023-03-14T11:43:41;7.50;1.00
21216;DHT22;10765;50.954;5.322;2023-03-14T11:46:10;7.40;1.00
21216;DHT22;10765;50.954;5.322;2023-03-14T11:48:44;7.40;1.00
21216;DHT22;10765;50.954;5.322;2023-03-14T11:51:17;7.50;1.00
21216;DHT22;10765;50.954;5.322;2023-03-14T11:53:57;7.50;1.00
21216;DHT22;10765;50.954;5.322;2023-03-14T11:56:31;7.70;1.00
21216;DHT22;10765;50.954;5.322;2023-03-14T11:59:02;7.90;1.00
21216;DHT22;10765;50.954;5.322;2023-03-14T12:01:44;8.30;1.00
21216;DHT22;10765;50.954;5.322;2023-03-14T12:04:20;9.00;1.00
21216;DHT22;10765;50.954;5.322;2023-03-14T12:06:49;10.40;1.00
21216;DHT22;10765;50.954;5.322;2023-03-14T12:09:18;11.50;99.90
21216;DHT22;10765;50.954;5.322;2023-03-14T12:11:48;11.60;1.00
21216;DHT22;10765;50.954;5.322;2023-03-14T12:14:21;11.50;1.00
21216;DHT22;10765;50.954;5.322;2023-03-14T12:16:49;10.50;99.90
21216;DHT22;10765;50.954;5.322;2023-03-14T12:19:41;10.10;1.00
21216;DHT22;10765;50.954;5.322;2023-03-14T12:22:27;9.40;59.00
21216;DHT22;10765;50.954;5.322;2023-03-14T12:25:05;8.60;14.40
21216;DHT22;10765;50.954;5.322;2023-03-14T12:28:03;7.40;64.70
21216;DHT22;10765;50.954;5.322;2023-03-14T12:30:31;6.80;1.00
21216;DHT22;10765;50.954;5.322;2023-03-14T12:33:27;6.60;1.00
21216;DHT22;10765;50.954;5.322;2023-03-14T12:35:58;6.70;1.00
21216;DHT22;10765;50.954;5.322;2023-03-14T12:38:43;6.80;99.90
21216;DHT22;10765;50.954;5.322;2023-03-14T12:41:17;7.00;1.00
21216;DHT22;10765;50.954;5.322;2023-03-14T12:43:47;6.80;99.90
21216;DHT22;10765;50.954;5.322;2023-03-14T12:46:22;6.40;1.00
21216;DHT22;10765;50.954;5.322;2023-03-14T12:48:53;6.30;99.90
21216;DHT22;10765;50.954;5.322;2023-03-14T12:51:28;6.40;1.00
21216;DHT22;10765;50.954;5.322;2023-03-14T12:54:17;6.20;1.00
21216;DHT22;10765;50.954;5.322;2023-03-14T12:57:12;6.20;99.90
21216;DHT22;10765;50.954;5.322;2023-03-14T12:59:50;6.10;1.00
21216;DHT22;10765;50.954;5.322;2023-03-14T13:02:23;6.10;1.00
21216;DHT22;10765;50.954;5.322;2023-03-14T13:04:53;6.20;1.00
21216;DHT22;10765;50.954;5.322;2023-03-14T13:07:33;6.30;1.00
21216;DHT22;10765;50.954;5.322;2023-03-14T13:10:19;6.40;1.00
21216;DHT22;10765;50.954;5.322;2023-03-14T13:12:51;6.60;99.90
21216;DHT22;10765;50.954;5.322;2023-03-14T13:15:21;6.80;1.00
21216;DHT22;10765;50.954;5.322;2023-03-14T13:17:51;6.70;1.00
21216;DHT22;10765;50.954;5.322;2023-03-14T13:20:24;6.50;1.00
21216;DHT22;10765;50.954;5.322;2023-03-14T13:22:53;6.50;99.90
21216;DHT22;10765;50.954;5.322;2023-03-14T13:25:20;6.50;1.00
21216;DHT22;10765;50.954;5.322;2023-03-14T13:27:52;6.70;99.90
21216;DHT22;10765;50.954;5.322;2023-03-14T13:30:22;6.70;1.00
21216;DHT22;10765;50.954;5.322;2023-03-14T13:32:51;6.80;1.00
21216;DHT22;10765;50.954;5.322;2023-03-14T13:35:21;7.00;99.90
21216;DHT22;10765;50.954;5.322;2023-03-14T13:37:53;7.10;1.00
21216;DHT22;10765;50.954;5.322;2023-03-14T13:40:24;7.20;99.90
21216;DHT22;10765;50.954;5.322;2023-03-14T13:43:02;7.30;1.00
21216;DHT22;10765;50.954;5.322;2023-03-14T13:45:29;7.40;99.90
21216;DHT22;10765;50.954;5.322;2023-03-14T13:47:56;7.30;99.90
21216;DHT22;10765;50.954;5.322;2023-03-14T13:50:23;7.40;99.90
21216;DHT22;10765;50.954;5.322;2023-03-14T13:52:55;7.30;99.90
21216;DHT22;10765;50.954;5.322;2023-03-14T13:55:23;7.20;99.90
21216;DHT22;10765;50.954;5.322;2023-03-14T13:57:52;7.30;99.90
21216;DHT22;10765;50.954;5.322;2023-03-14T14:00:23;7.20;83.40
21216;DHT22;10765;50.954;5.322;2023-03-14T14:02:53;7.20;99.90
21216;DHT22;10765;50.954;5.322;2023-03-14T14:05:21;7.20;1.00
21216;DHT22;10765;50.954;5.322;2023-03-14T14:07:49;7.20;99.90
21216;DHT22;10765;50.954;5.322;2023-03-14T14:10:17;7.30;99.90
21216;DHT22;10765;50.954;5.322;2023-03-14T14:12:47;7.50;99.90
21216;DHT22;10765;50.954;5.322;2023-03-14T14:15:18;7.60;1.00
21216;DHT22;10765;50.954;5.322;2023-03-14T14:17:51;7.50;99.90
21216;DHT22;10765;50.954;5.322;2023-03-14T14:20:23;7.50;1.00
21216;DHT22;10765;50.954;5.322;2023-03-14T14:22:57;7.60;99.90
21216;DHT22;10765;50.954;5.322;2023-03-14T14:25:24;7.40;1.00
21216;DHT22;10765;50.954;5.322;2023-03-14T14:27:51;7.20;1.00
21216;DHT22;10765;50.954;5.322;2023-03-14T14:30:29;7.30;34.50
21216;DHT22;10765;50.954;5.322;2023-03-14T14:33:18;7.20;99.90
21216;DHT22;10765;50.954;5.322;2023-03-14T14:35:54;7.40;1.00
21216;DHT22;10765;50.954;5.322;2023-03-14T14:38:22;7.60;99.90
21216;DHT22;10765;50.954;5.322;2023-03-14T14:40:52;7.80;99.90
21216;DHT22;10765;50.954;5.322;2023-03-14T14:43:22;7.70;99.90
21216;DHT22;10765;50.954;5.322;2023-03-14T14:45:51;7.80;1.00
21216;DHT22;10765;50.954;5.322;2023-03-14T14:48:21;7.90;99.90
21216;DHT22;10765;50.954;5.322;2023-03-14T14:50:55;7.80;99.90
21216;DHT22;10765;50.954;5.322;2023-03-14T14:53:26;7.70;19.10
21216;DHT22;10765;50.954;5.322;2023-03-14T14:55:55;7.80;1.00
21216;DHT22;10765;50.954;5.322;2023-03-14T14:58:25;7.90;1.00
21216;DHT22;10765;50.954;5.322;2023-03-14T15:00:55;7.90;99.90
21216;DHT22;10765;50.954;5.322;2023-03-14T15:03:27;7.90;1.00
21216;DHT22;10765;50.954;5.322;2023-03-14T15:05:54;8.00;99.90
21216;DHT22;10765;50.954;5.322;2023-03-14T15:08:22;8.00;99.90
21216;DHT22;10765;50.954;5.322;2023-03-14T15:10:50;8.00;1.00
21216;DHT22;10765;50.954;5.322;2023-03-14T15:13:17;7.80;1.00
21216;DHT22;10765;50.954;5.322;2023-03-14T15:15:44;7.90;99.90
21216;DHT22;10765;50.954;5.322;2023-03-14T15:18:13;7.80;1.00
21216;DHT22;10765;50.954;5.322;2023-03-14T15:20:42;7.70;99.90
21216;DHT22;10765;50.954;5.322;2023-03-14T15:23:11;7.80;1.00
21216;DHT22;10765;50.954;5.322;2023-03-14T15:25:38;7.60;99.90
21216;DHT22;10765;50.954;5.322;2023-03-14T15:28:13;7.60;1.00
21216;DHT22;10765;50.954;5.322;2023-03-14T15:30:41;7.30;99.90
21216;DHT22;10765;50.954;5.322;2023-03-14T15:33:08;7.10;1.00
21216;DHT22;10765;50.954;5.322;2023-03-14T15:35:36;6.80;1.00
21216;DHT22;10765;50.954;5.322;2023-03-14T15:38:04;6.50;1.00
21216;DHT22;10765;50.954;5.322;2023-03-14T15:40:31;6.30;1.00
21216;DHT22;10765;50.954;5.322;2023-03-14T15:42:58;6.30;1.00
21216;DHT22;10765;50.954;5.322;2023-03-14T15:45:25;6.40;1.00
21216;DHT22;10765;50.954;5.322;2023-03-14T15:47:52;6.50;1.00
21216;DHT22;10765;50.954;5.322;2023-03-14T15:50:19;6.50;1.00
21216;DHT22;10765;50.954;5.322;2023-03-14T15:52:46;6.60;1.00
21216;DHT22;10765;50.954;5.322;2023-03-14T15:55:14;6.50;1.00
21216;DHT22;10765;50.954;5.322;2023-03-14T15:57:42;6.50;1.00
21216;DHT22;10765;50.954;5.322;2023-03-14T16:00:12;6.50;1.00
21216;DHT22;10765;50.954;5.322;2023-03-14T16:02:41;6.60;1.00